Forside
METAR-TAF:

METAR-TAF

Lufthavne :

Cleveland, Ohio, USA

Breddekreds: 41-34N, længdekreds: 081-29W, højde: 268 m

Aktuelle vejr

Denne rapport blev lavet for 1 time og 8 minutter siden, kl. 11:45 UTC
Vind stille
Temperatur 3°C
Fugtighed 93%
Tryk 1016 hPa
Sigt: 12.9 km
Overskyet i en højde af 700 ft

METAR: KCGF 311145Z 00000KT 8SM OVC007 03/02 A3001

Tid: 08:53 (12:53 UTC)


TAF: fraværende

Vejrobservationer og prognoser fra mere end 4000 lufthavne (METAR og TAF).

De gule og røde prikker repræsenterer de meteorologiske stationer.

Flyt musen over at se navnet på stationen.

Så klik over at se vejr observationer og prognoser.

At skifte det kort: Klik på de grønne knapper med et sort kors for at zoome ind; på den grønne knap med en bindestreg for at zoome ud; eller på de grønne pile for tilstødende kort.


METAR-TAF: